sensor_id;sensor_type;location;lat;lon;timestamp;P1;durP1;ratioP1;P2;durP2;ratioP2
7583;SDS011;3833;41.764;26.204;2023-04-12T00:01:58;8.73;;;7.83;;
7583;SDS011;3833;41.764;26.204;2023-04-12T00:04:26;9.07;;;8.17;;
7583;SDS011;3833;41.764;26.204;2023-04-12T00:06:54;10.37;;;9.27;;
7583;SDS011;3833;41.764;26.204;2023-04-12T00:09:22;11.00;;;9.40;;
7583;SDS011;3833;41.764;26.204;2023-04-12T00:11:48;9.67;;;8.43;;
7583;SDS011;3833;41.764;26.204;2023-04-12T00:14:15;10.40;;;9.33;;
7583;SDS011;3833;41.764;26.204;2023-04-12T00:16:42;10.13;;;8.57;;
7583;SDS011;3833;41.764;26.204;2023-04-12T00:19:09;10.23;;;8.53;;
7583;SDS011;3833;41.764;26.204;2023-04-12T00:21:37;10.20;;;9.10;;
7583;SDS011;3833;41.764;26.204;2023-04-12T00:24:04;9.30;;;8.40;;
7583;SDS011;3833;41.764;26.204;2023-04-12T00:26:31;11.37;;;8.60;;
7583;SDS011;3833;41.764;26.204;2023-04-12T00:28:58;10.27;;;9.27;;
7583;SDS011;3833;41.764;26.204;2023-04-12T00:31:25;11.03;;;9.50;;
7583;SDS011;3833;41.764;26.204;2023-04-12T00:33:52;11.30;;;9.03;;
7583;SDS011;3833;41.764;26.204;2023-04-12T00:36:19;10.70;;;9.60;;
7583;SDS011;3833;41.764;26.204;2023-04-12T00:38:47;10.07;;;9.07;;
7583;SDS011;3833;41.764;26.204;2023-04-12T00:41:14;11.07;;;9.27;;
7583;SDS011;3833;41.764;26.204;2023-04-12T00:43:41;12.13;;;9.53;;
7583;SDS011;3833;41.764;26.204;2023-04-12T00:46:08;11.30;;;10.10;;
7583;SDS011;3833;41.764;26.204;2023-04-12T00:48:35;11.77;;;9.73;;
7583;SDS011;3833;41.764;26.204;2023-04-12T00:51:04;12.70;;;10.67;;
7583;SDS011;3833;41.764;26.204;2023-04-12T00:53:32;14.20;;;10.00;;
7583;SDS011;3833;41.764;26.204;2023-04-12T00:56:01;11.60;;;10.33;;
7583;SDS011;3833;41.764;26.204;2023-04-12T00:58:29;10.77;;;9.67;;
7583;SDS011;3833;41.764;26.204;2023-04-12T01:00:56;12.20;;;10.90;;
7583;SDS011;3833;41.764;26.204;2023-04-12T01:03:23;12.23;;;11.03;;
7583;SDS011;3833;41.764;26.204;2023-04-12T01:05:53;12.00;;;10.70;;
7583;SDS011;3833;41.764;26.204;2023-04-12T01:08:31;12.73;;;11.27;;
7583;SDS011;3833;41.764;26.204;2023-04-12T01:11:12;14.23;;;11.37;;
7583;SDS011;3833;41.764;26.204;2023-04-12T01:13:44;13.70;;;12.20;;
7583;SDS011;3833;41.764;26.204;2023-04-12T01:16:18;12.27;;;11.07;;
7583;SDS011;3833;41.764;26.204;2023-04-12T01:18:53;15.10;;;12.47;;
7583;SDS011;3833;41.764;26.204;2023-04-12T01:21:27;14.70;;;12.70;;
7583;SDS011;3833;41.764;26.204;2023-04-12T01:24:02;14.30;;;12.27;;
7583;SDS011;3833;41.764;26.204;2023-04-12T01:26:46;13.60;;;12.20;;
7583;SDS011;3833;41.764;26.204;2023-04-12T01:29:18;14.80;;;12.77;;
7583;SDS011;3833;41.764;26.204;2023-04-12T01:31:48;12.97;;;11.33;;
7583;SDS011;3833;41.764;26.204;2023-04-12T01:34:18;13.93;;;11.70;;
7583;SDS011;3833;41.764;26.204;2023-04-12T01:36:47;14.33;;;12.33;;
7583;SDS011;3833;41.764;26.204;2023-04-12T01:39:15;14.57;;;12.93;;
7583;SDS011;3833;41.764;26.204;2023-04-12T01:41:42;14.50;;;12.83;;
7583;SDS011;3833;41.764;26.204;2023-04-12T01:44:13;14.23;;;12.77;;
7583;SDS011;3833;41.764;26.204;2023-04-12T01:46:42;15.33;;;12.47;;
7583;SDS011;3833;41.764;26.204;2023-04-12T01:49:10;14.40;;;12.83;;
7583;SDS011;3833;41.764;26.204;2023-04-12T01:51:40;15.27;;;13.17;;
7583;SDS011;3833;41.764;26.204;2023-04-12T01:54:16;13.43;;;11.90;;
7583;SDS011;3833;41.764;26.204;2023-04-12T01:56:49;13.93;;;12.43;;
7583;SDS011;3833;41.764;26.204;2023-04-12T01:59:26;14.73;;;12.57;;
7583;SDS011;3833;41.764;26.204;2023-04-12T02:01:58;16.60;;;13.93;;
7583;SDS011;3833;41.764;26.204;2023-04-12T02:04:25;15.07;;;12.57;;
7583;SDS011;3833;41.764;26.204;2023-04-12T02:06:53;12.80;;;11.50;;
7583;SDS011;3833;41.764;26.204;2023-04-12T02:09:20;15.10;;;13.10;;
7583;SDS011;3833;41.764;26.204;2023-04-12T02:11:47;14.00;;;12.50;;
7583;SDS011;3833;41.764;26.204;2023-04-12T02:14:15;13.83;;;12.40;;
7583;SDS011;3833;41.764;26.204;2023-04-12T02:16:41;13.83;;;12.43;;
7583;SDS011;3833;41.764;26.204;2023-04-12T02:19:11;16.30;;;13.17;;
7583;SDS011;3833;41.764;26.204;2023-04-12T02:21:39;14.13;;;12.27;;
7583;SDS011;3833;41.764;26.204;2023-04-12T02:24:07;18.07;;;12.90;;
7583;SDS011;3833;41.764;26.204;2023-04-12T02:26:34;14.47;;;13.07;;
7583;SDS011;3833;41.764;26.204;2023-04-12T02:29:02;13.53;;;12.13;;
7583;SDS011;3833;41.764;26.204;2023-04-12T02:31:31;13.33;;;12.00;;
7583;SDS011;3833;41.764;26.204;2023-04-12T02:33:58;13.93;;;12.47;;
7583;SDS011;3833;41.764;26.204;2023-04-12T02:36:26;15.57;;;12.77;;
7583;SDS011;3833;41.764;26.204;2023-04-12T02:38:53;12.93;;;11.20;;
7583;SDS011;3833;41.764;26.204;2023-04-12T02:41:21;12.40;;;11.10;;
7583;SDS011;3833;41.764;26.204;2023-04-12T02:43:48;13.37;;;11.77;;
7583;SDS011;3833;41.764;26.204;2023-04-12T02:46:16;13.93;;;11.43;;
7583;SDS011;3833;41.764;26.204;2023-04-12T02:48:45;13.70;;;10.93;;
7583;SDS011;3833;41.764;26.204;2023-04-12T02:51:12;12.70;;;11.13;;
7583;SDS011;3833;41.764;26.204;2023-04-12T02:53:41;11.63;;;10.47;;
7583;SDS011;3833;41.764;26.204;2023-04-12T02:56:08;13.53;;;11.17;;
7583;SDS011;3833;41.764;26.204;2023-04-12T02:58:35;11.40;;;10.30;;
7583;SDS011;3833;41.764;26.204;2023-04-12T03:01:02;12.17;;;10.97;;
7583;SDS011;3833;41.764;26.204;2023-04-12T03:03:32;11.33;;;10.23;;
7583;SDS011;3833;41.764;26.204;2023-04-12T03:05:59;11.17;;;10.00;;
7583;SDS011;3833;41.764;26.204;2023-04-12T03:08:26;10.47;;;9.37;;
7583;SDS011;3833;41.764;26.204;2023-04-12T03:10:54;10.73;;;9.27;;
7583;SDS011;3833;41.764;26.204;2023-04-12T03:13:21;11.00;;;9.90;;
7583;SDS011;3833;41.764;26.204;2023-04-12T03:15:48;9.73;;;8.80;;
7583;SDS011;3833;41.764;26.204;2023-04-12T03:18:20;11.30;;;10.20;;
7583;SDS011;3833;41.764;26.204;2023-04-12T03:20:47;12.73;;;10.67;;
7583;SDS011;3833;41.764;26.204;2023-04-12T03:23:14;10.43;;;9.03;;
7583;SDS011;3833;41.764;26.204;2023-04-12T03:25:41;10.23;;;9.27;;
7583;SDS011;3833;41.764;26.204;2023-04-12T03:28:10;11.23;;;9.83;;
7583;SDS011;3833;41.764;26.204;2023-04-12T03:30:37;10.87;;;9.00;;
7583;SDS011;3833;41.764;26.204;2023-04-12T03:33:03;10.17;;;9.17;;
7583;SDS011;3833;41.764;26.204;2023-04-12T03:35:30;10.20;;;9.20;;
7583;SDS011;3833;41.764;26.204;2023-04-12T03:37:57;10.57;;;9.50;;
7583;SDS011;3833;41.764;26.204;2023-04-12T03:40:24;9.70;;;8.70;;
7583;SDS011;3833;41.764;26.204;2023-04-12T03:42:51;9.40;;;8.60;;
7583;SDS011;3833;41.764;26.204;2023-04-12T03:45:19;10.97;;;8.87;;
7583;SDS011;3833;41.764;26.204;2023-04-12T03:47:46;10.00;;;8.93;;
7583;SDS011;3833;41.764;26.204;2023-04-12T03:50:13;8.73;;;7.53;;
7583;SDS011;3833;41.764;26.204;2023-04-12T03:52:40;10.80;;;8.53;;
7583;SDS011;3833;41.764;26.204;2023-04-12T03:55:07;8.97;;;8.07;;
7583;SDS011;3833;41.764;26.204;2023-04-12T03:57:34;9.47;;;8.30;;
7583;SDS011;3833;41.764;26.204;2023-04-12T04:00:01;10.53;;;8.70;;
7583;SDS011;3833;41.764;26.204;2023-04-12T04:02:29;8.37;;;7.60;;
7583;SDS011;3833;41.764;26.204;2023-04-12T04:04:56;9.00;;;7.93;;
7583;SDS011;3833;41.764;26.204;2023-04-12T04:07:23;10.03;;;8.03;;
7583;SDS011;3833;41.764;26.204;2023-04-12T04:09:50;9.60;;;8.63;;
7583;SDS011;3833;41.764;26.204;2023-04-12T04:12:19;8.53;;;7.50;;
7583;SDS011;3833;41.764;26.204;2023-04-12T04:14:45;9.47;;;7.70;;
7583;SDS011;3833;41.764;26.204;2023-04-12T04:17:12;8.77;;;7.87;;
7583;SDS011;3833;41.764;26.204;2023-04-12T04:19:41;9.07;;;8.17;;
7583;SDS011;3833;41.764;26.204;2023-04-12T04:22:07;11.07;;;8.47;;
7583;SDS011;3833;41.764;26.204;2023-04-12T04:24:36;8.80;;;8.00;;
7583;SDS011;3833;41.764;26.204;2023-04-12T04:27:03;9.30;;;8.40;;
7583;SDS011;3833;41.764;26.204;2023-04-12T04:29:30;8.17;;;7.43;;
7583;SDS011;3833;41.764;26.204;2023-04-12T04:31:57;8.97;;;8.17;;
7583;SDS011;3833;41.764;26.204;2023-04-12T04:34:24;8.87;;;8.07;;
7583;SDS011;3833;41.764;26.204;2023-04-12T04:36:52;8.17;;;7.37;;
7583;SDS011;3833;41.764;26.204;2023-04-12T04:39:23;9.43;;;8.53;;
7583;SDS011;3833;41.764;26.204;2023-04-12T04:41:51;9.93;;;7.47;;
7583;SDS011;3833;41.764;26.204;2023-04-12T04:44:18;9.50;;;7.77;;
7583;SDS011;3833;41.764;26.204;2023-04-12T04:46:46;8.67;;;7.77;;
7583;SDS011;3833;41.764;26.204;2023-04-12T04:49:14;8.40;;;7.57;;
7583;SDS011;3833;41.764;26.204;2023-04-12T04:51:41;8.47;;;7.57;;
7583;SDS011;3833;41.764;26.204;2023-04-12T04:54:09;8.30;;;7.50;;
7583;SDS011;3833;41.764;26.204;2023-04-12T04:56:37;10.20;;;8.17;;
7583;SDS011;3833;41.764;26.204;2023-04-12T04:59:04;8.20;;;7.23;;
7583;SDS011;3833;41.764;26.204;2023-04-12T05:01:31;8.33;;;7.53;;
7583;SDS011;3833;41.764;26.204;2023-04-12T05:04:00;8.60;;;7.80;;
7583;SDS011;3833;41.764;26.204;2023-04-12T05:06:26;7.77;;;7.07;;
7583;SDS011;3833;41.764;26.204;2023-04-12T05:08:53;8.13;;;7.33;;
7583;SDS011;3833;41.764;26.204;2023-04-12T05:11:22;8.83;;;7.17;;
7583;SDS011;3833;41.764;26.204;2023-04-12T05:13:49;8.20;;;7.40;;
7583;SDS011;3833;41.764;26.204;2023-04-12T05:16:16;8.00;;;7.20;;
7583;SDS011;3833;41.764;26.204;2023-04-12T05:18:42;7.63;;;6.93;;
7583;SDS011;3833;41.764;26.204;2023-04-12T05:21:10;9.10;;;6.70;;
7583;SDS011;3833;41.764;26.204;2023-04-12T05:23:40;7.67;;;6.97;;
7583;SDS011;3833;41.764;26.204;2023-04-12T05:26:08;9.27;;;8.33;;
7583;SDS011;3833;41.764;26.204;2023-04-12T05:28:37;9.63;;;8.77;;
7583;SDS011;3833;41.764;26.204;2023-04-12T05:31:04;9.57;;;8.60;;
7583;SDS011;3833;41.764;26.204;2023-04-12T05:33:32;10.63;;;9.73;;
7583;SDS011;3833;41.764;26.204;2023-04-12T05:36:01;8.03;;;6.67;;
7583;SDS011;3833;41.764;26.204;2023-04-12T05:38:28;7.77;;;7.07;;
7583;SDS011;3833;41.764;26.204;2023-04-12T05:40:55;7.57;;;6.87;;
7583;SDS011;3833;41.764;26.204;2023-04-12T05:43:28;7.30;;;6.60;;
7583;SDS011;3833;41.764;26.204;2023-04-12T05:45:56;8.20;;;7.43;;
7583;SDS011;3833;41.764;26.204;2023-04-12T05:48:24;8.00;;;7.13;;
7583;SDS011;3833;41.764;26.204;2023-04-12T05:50:51;9.57;;;7.20;;
7583;SDS011;3833;41.764;26.204;2023-04-12T05:53:19;9.27;;;7.10;;
7583;SDS011;3833;41.764;26.204;2023-04-12T05:55:46;8.87;;;7.97;;
7583;SDS011;3833;41.764;26.204;2023-04-12T05:58:13;12.27;;;11.27;;
7583;SDS011;3833;41.764;26.204;2023-04-12T06:00:42;13.33;;;12.27;;
7583;SDS011;3833;41.764;26.204;2023-04-12T06:03:11;12.63;;;11.73;;
7583;SDS011;3833;41.764;26.204;2023-04-12T06:05:38;8.37;;;7.50;;
7583;SDS011;3833;41.764;26.204;2023-04-12T06:08:05;7.33;;;6.63;;
7583;SDS011;3833;41.764;26.204;2023-04-12T06:10:33;7.83;;;6.90;;
7583;SDS011;3833;41.764;26.204;2023-04-12T06:13:00;7.30;;;6.63;;
7583;SDS011;3833;41.764;26.204;2023-04-12T06:15:27;7.50;;;6.70;;
7583;SDS011;3833;41.764;26.204;2023-04-12T06:17:56;7.90;;;7.10;;
7583;SDS011;3833;41.764;26.204;2023-04-12T06:20:25;8.17;;;7.37;;
7583;SDS011;3833;41.764;26.204;2023-04-12T06:22:53;7.90;;;6.70;;
7583;SDS011;3833;41.764;26.204;2023-04-12T06:25:20;9.30;;;8.33;;
7583;SDS011;3833;41.764;26.204;2023-04-12T06:27:47;8.20;;;7.50;;
7583;SDS011;3833;41.764;26.204;2023-04-12T06:30:14;8.97;;;7.80;;
7583;SDS011;3833;41.764;26.204;2023-04-12T06:32:41;15.70;;;14.50;;
7583;SDS011;3833;41.764;26.204;2023-04-12T06:35:08;12.40;;;11.40;;
7583;SDS011;3833;41.764;26.204;2023-04-12T06:37:36;14.77;;;13.67;;
7583;SDS011;3833;41.764;26.204;2023-04-12T06:40:04;13.50;;;12.53;;
7583;SDS011;3833;41.764;26.204;2023-04-12T06:42:32;11.57;;;8.07;;
7583;SDS011;3833;41.764;26.204;2023-04-12T06:44:59;9.30;;;8.37;;
7583;SDS011;3833;41.764;26.204;2023-04-12T06:47:26;9.70;;;8.40;;
7583;SDS011;3833;41.764;26.204;2023-04-12T06:49:53;11.60;;;8.90;;
7583;SDS011;3833;41.764;26.204;2023-04-12T06:52:22;9.90;;;8.73;;
7583;SDS011;3833;41.764;26.204;2023-04-12T06:54:52;14.73;;;11.70;;
7583;SDS011;3833;41.764;26.204;2023-04-12T06:57:19;10.57;;;9.37;;
7583;SDS011;3833;41.764;26.204;2023-04-12T06:59:48;17.10;;;15.60;;
7583;SDS011;3833;41.764;26.204;2023-04-12T07:02:15;15.77;;;14.47;;
7583;SDS011;3833;41.764;26.204;2023-04-12T07:04:42;15.27;;;13.97;;
7583;SDS011;3833;41.764;26.204;2023-04-12T07:07:09;18.43;;;16.90;;
7583;SDS011;3833;41.764;26.204;2023-04-12T07:09:36;15.40;;;11.57;;
7583;SDS011;3833;41.764;26.204;2023-04-12T07:12:04;11.30;;;10.10;;
7583;SDS011;3833;41.764;26.204;2023-04-12T07:14:32;13.03;;;10.03;;
7583;SDS011;3833;41.764;26.204;2023-04-12T07:16:58;13.90;;;10.00;;
7583;SDS011;3833;41.764;26.204;2023-04-12T07:19:26;13.20;;;10.90;;
7583;SDS011;3833;41.764;26.204;2023-04-12T07:21:53;10.70;;;9.60;;
7583;SDS011;3833;41.764;26.204;2023-04-12T07:24:20;21.97;;;20.30;;
7583;SDS011;3833;41.764;26.204;2023-04-12T07:26:47;23.23;;;20.40;;
7583;SDS011;3833;41.764;26.204;2023-04-12T07:29:16;22.07;;;19.73;;
7583;SDS011;3833;41.764;26.204;2023-04-12T07:31:43;18.17;;;15.50;;
7583;SDS011;3833;41.764;26.204;2023-04-12T07:34:10;10.53;;;9.50;;
7583;SDS011;3833;41.764;26.204;2023-04-12T07:36:37;22.57;;;15.47;;
7583;SDS011;3833;41.764;26.204;2023-04-12T07:39:04;26.77;;;24.07;;
7583;SDS011;3833;41.764;26.204;2023-04-12T07:41:36;23.80;;;22.07;;
7583;SDS011;3833;41.764;26.204;2023-04-12T07:44:02;31.97;;;29.10;;
7583;SDS011;3833;41.764;26.204;2023-04-12T07:46:31;21.53;;;19.43;;
7583;SDS011;3833;41.764;26.204;2023-04-12T07:48:58;11.23;;;10.07;;
7583;SDS011;3833;41.764;26.204;2023-04-12T07:51:25;12.43;;;10.13;;
7583;SDS011;3833;41.764;26.204;2023-04-12T07:53:52;9.30;;;8.50;;
7583;SDS011;3833;41.764;26.204;2023-04-12T07:56:19;9.30;;;8.40;;
7583;SDS011;3833;41.764;26.204;2023-04-12T07:58:46;8.93;;;8.03;;
7583;SDS011;3833;41.764;26.204;2023-04-12T08:01:13;8.10;;;7.30;;
7583;SDS011;3833;41.764;26.204;2023-04-12T08:03:42;20.33;;;19.23;;
7583;SDS011;3833;41.764;26.204;2023-04-12T08:06:09;20.07;;;18.83;;
7583;SDS011;3833;41.764;26.204;2023-04-12T08:08:36;17.83;;;16.40;;
7583;SDS011;3833;41.764;26.204;2023-04-12T08:11:04;11.20;;;10.20;;
7583;SDS011;3833;41.764;26.204;2023-04-12T08:13:31;9.47;;;8.53;;
7583;SDS011;3833;41.764;26.204;2023-04-12T08:15:58;10.60;;;7.60;;
7583;SDS011;3833;41.764;26.204;2023-04-12T08:18:25;17.57;;;16.37;;
7583;SDS011;3833;41.764;26.204;2023-04-12T08:20:54;21.03;;;19.80;;
7583;SDS011;3833;41.764;26.204;2023-04-12T08:23:21;15.27;;;14.17;;
7583;SDS011;3833;41.764;26.204;2023-04-12T08:25:50;11.93;;;11.03;;
7583;SDS011;3833;41.764;26.204;2023-04-12T08:28:25;8.83;;;7.17;;
7583;SDS011;3833;41.764;26.204;2023-04-12T08:30:52;7.57;;;6.40;;
7583;SDS011;3833;41.764;26.204;2023-04-12T08:33:19;7.17;;;6.57;;
7583;SDS011;3833;41.764;26.204;2023-04-12T08:35:46;7.50;;;6.80;;
7583;SDS011;3833;41.764;26.204;2023-04-12T08:38:15;10.33;;;9.63;;
7583;SDS011;3833;41.764;26.204;2023-04-12T08:40:42;16.87;;;15.87;;
7583;SDS011;3833;41.764;26.204;2023-04-12T08:43:10;14.57;;;13.77;;
7583;SDS011;3833;41.764;26.204;2023-04-12T08:45:37;16.53;;;15.63;;
7583;SDS011;3833;41.764;26.204;2023-04-12T08:48:04;6.13;;;5.53;;
7583;SDS011;3833;41.764;26.204;2023-04-12T08:50:31;5.33;;;4.93;;
7583;SDS011;3833;41.764;26.204;2023-04-12T08:52:59;4.87;;;4.47;;
7583;SDS011;3833;41.764;26.204;2023-04-12T08:55:27;5.10;;;4.60;;
7583;SDS011;3833;41.764;26.204;2023-04-12T08:57:55;10.27;;;9.77;;
7583;SDS011;3833;41.764;26.204;2023-04-12T09:00:24;14.17;;;13.30;;
7583;SDS011;3833;41.764;26.204;2023-04-12T09:02:51;14.03;;;13.37;;
7583;SDS011;3833;41.764;26.204;2023-04-12T09:05:18;10.40;;;9.83;;
7583;SDS011;3833;41.764;26.204;2023-04-12T09:07:47;2.67;;;2.47;;
7583;SDS011;3833;41.764;26.204;2023-04-12T09:10:28;3.00;;;2.70;;
7583;SDS011;3833;41.764;26.204;2023-04-12T09:12:58;2.83;;;2.50;;
7583;SDS011;3833;41.764;26.204;2023-04-12T09:15:25;2.80;;;2.60;;
7583;SDS011;3833;41.764;26.204;2023-04-12T09:18:01;10.90;;;10.50;;
7583;SDS011;3833;41.764;26.204;2023-04-12T09:20:32;14.63;;;13.83;;
7583;SDS011;3833;41.764;26.204;2023-04-12T09:23:00;11.33;;;10.83;;
7583;SDS011;3833;41.764;26.204;2023-04-12T09:25:42;5.83;;;5.40;;
7583;SDS011;3833;41.764;26.204;2023-04-12T09:28:19;3.07;;;2.87;;
7583;SDS011;3833;41.764;26.204;2023-04-12T09:30:47;2.93;;;2.70;;
7583;SDS011;3833;41.764;26.204;2023-04-12T09:33:17;3.67;;;3.00;;
7583;SDS011;3833;41.764;26.204;2023-04-12T09:35:45;3.23;;;2.93;;
7583;SDS011;3833;41.764;26.204;2023-04-12T09:38:12;14.00;;;13.20;;
7583;SDS011;3833;41.764;26.204;2023-04-12T09:40:42;9.67;;;9.00;;
7583;SDS011;3833;41.764;26.204;2023-04-12T09:43:10;10.63;;;10.23;;
7583;SDS011;3833;41.764;26.204;2023-04-12T09:45:37;12.30;;;11.70;;
7583;SDS011;3833;41.764;26.204;2023-04-12T09:48:05;3.30;;;2.93;;
7583;SDS011;3833;41.764;26.204;2023-04-12T09:50:33;3.53;;;3.23;;
7583;SDS011;3833;41.764;26.204;2023-04-12T09:53:00;3.17;;;2.97;;
7583;SDS011;3833;41.764;26.204;2023-04-12T09:55:28;2.40;;;2.30;;
7583;SDS011;3833;41.764;26.204;2023-04-12T09:58:00;3.63;;;2.80;;
7583;SDS011;3833;41.764;26.204;2023-04-12T10:00:29;5.90;;;5.50;;
7583;SDS011;3833;41.764;26.204;2023-04-12T10:02:58;5.93;;;5.63;;
7583;SDS011;3833;41.764;26.204;2023-04-12T10:05:25;12.77;;;12.27;;
7583;SDS011;3833;41.764;26.204;2023-04-12T10:07:53;16.73;;;16.13;;
7583;SDS011;3833;41.764;26.204;2023-04-12T10:10:21;2.90;;;2.70;;
7583;SDS011;3833;41.764;26.204;2023-04-12T10:12:48;2.57;;;2.37;;
7583;SDS011;3833;41.764;26.204;2023-04-12T10:15:17;3.40;;;2.37;;
7583;SDS011;3833;41.764;26.204;2023-04-12T10:17:46;2.73;;;2.53;;
7583;SDS011;3833;41.764;26.204;2023-04-12T10:20:14;2.70;;;2.50;;
7583;SDS011;3833;41.764;26.204;2023-04-12T10:22:43;6.80;;;6.50;;
7583;SDS011;3833;41.764;26.204;2023-04-12T10:25:11;5.10;;;4.80;;
7583;SDS011;3833;41.764;26.204;2023-04-12T10:27:40;5.67;;;5.37;;
7583;SDS011;3833;41.764;26.204;2023-04-12T10:30:19;5.27;;;4.87;;
7583;SDS011;3833;41.764;26.204;2023-04-12T10:32:49;4.10;;;2.90;;
7583;SDS011;3833;41.764;26.204;2023-04-12T10:35:49;3.40;;;3.10;;
7583;SDS011;3833;41.764;26.204;2023-04-12T10:38:24;12.10;;;11.60;;
7583;SDS011;3833;41.764;26.204;2023-04-12T10:41:15;12.03;;;11.53;;
7583;SDS011;3833;41.764;26.204;2023-04-12T10:43:43;11.00;;;10.60;;
7583;SDS011;3833;41.764;26.204;2023-04-12T10:49:09;3.07;;;2.87;;
7583;SDS011;3833;41.764;26.204;2023-04-12T10:51:37;2.93;;;2.73;;
7583;SDS011;3833;41.764;26.204;2023-04-12T10:56:59;5.73;;;5.33;;
7583;SDS011;3833;41.764;26.204;2023-04-12T10:59:35;17.00;;;16.30;;
7583;SDS011;3833;41.764;26.204;2023-04-12T11:02:16;15.70;;;14.97;;
7583;SDS011;3833;41.764;26.204;2023-04-12T11:07:38;3.30;;;3.00;;
7583;SDS011;3833;41.764;26.204;2023-04-12T11:10:11;12.10;;;11.10;;
7583;SDS011;3833;41.764;26.204;2023-04-12T11:12:40;17.07;;;15.67;;
7583;SDS011;3833;41.764;26.204;2023-04-12T11:15:10;20.27;;;17.50;;
7583;SDS011;3833;41.764;26.204;2023-04-12T11:17:38;8.70;;;7.80;;
7583;SDS011;3833;41.764;26.204;2023-04-12T11:20:10;15.67;;;15.07;;
7583;SDS011;3833;41.764;26.204;2023-04-12T11:22:37;6.97;;;6.57;;
7583;SDS011;3833;41.764;26.204;2023-04-12T11:25:05;5.93;;;5.63;;
7583;SDS011;3833;41.764;26.204;2023-04-12T11:27:32;7.97;;;7.37;;
7583;SDS011;3833;41.764;26.204;2023-04-12T11:30:02;5.97;;;4.80;;
7583;SDS011;3833;41.764;26.204;2023-04-12T11:32:29;16.57;;;15.37;;
7583;SDS011;3833;41.764;26.204;2023-04-12T11:34:58;16.67;;;15.77;;
7583;SDS011;3833;41.764;26.204;2023-04-12T11:37:27;17.07;;;16.17;;
7583;SDS011;3833;41.764;26.204;2023-04-12T11:39:56;15.43;;;14.57;;
7583;SDS011;3833;41.764;26.204;2023-04-12T11:42:24;3.50;;;3.30;;
7583;SDS011;3833;41.764;26.204;2023-04-12T11:44:53;3.83;;;3.33;;
7583;SDS011;3833;41.764;26.204;2023-04-12T11:47:20;8.03;;;7.53;;
7583;SDS011;3833;41.764;26.204;2023-04-12T11:49:49;4.33;;;4.03;;
7583;SDS011;3833;41.764;26.204;2023-04-12T11:52:17;5.60;;;5.10;;
7583;SDS011;3833;41.764;26.204;2023-04-12T11:54:47;8.33;;;7.73;;
7583;SDS011;3833;41.764;26.204;2023-04-12T11:57:15;3.10;;;2.90;;
7583;SDS011;3833;41.764;26.204;2023-04-12T11:59:44;3.37;;;3.10;;
7583;SDS011;3833;41.764;26.204;2023-04-12T12:02:12;6.03;;;5.47;;
7583;SDS011;3833;41.764;26.204;2023-04-12T12:04:40;12.43;;;11.83;;
7583;SDS011;3833;41.764;26.204;2023-04-12T12:07:09;13.00;;;12.30;;
7583;SDS011;3833;41.764;26.204;2023-04-12T12:09:38;13.50;;;12.90;;
7583;SDS011;3833;41.764;26.204;2023-04-12T12:12:08;16.37;;;15.67;;
7583;SDS011;3833;41.764;26.204;2023-04-12T12:14:38;3.30;;;3.10;;
7583;SDS011;3833;41.764;26.204;2023-04-12T12:17:08;4.40;;;4.00;;
7583;SDS011;3833;41.764;26.204;2023-04-12T12:19:37;4.83;;;4.43;;
7583;SDS011;3833;41.764;26.204;2023-04-12T12:22:13;6.50;;;5.80;;
7583;SDS011;3833;41.764;26.204;2023-04-12T12:24:44;4.43;;;4.03;;
7583;SDS011;3833;41.764;26.204;2023-04-12T12:27:17;9.30;;;7.50;;
7583;SDS011;3833;41.764;26.204;2023-04-12T12:29:47;18.57;;;17.37;;
7583;SDS011;3833;41.764;26.204;2023-04-12T12:32:17;18.33;;;17.53;;
7583;SDS011;3833;41.764;26.204;2023-04-12T12:34:49;21.10;;;19.77;;
7583;SDS011;3833;41.764;26.204;2023-04-12T12:37:22;8.33;;;7.83;;
7583;SDS011;3833;41.764;26.204;2023-04-12T12:42:37;5.97;;;5.47;;
7583;SDS011;3833;41.764;26.204;2023-04-12T12:45:10;5.57;;;5.07;;
7583;SDS011;3833;41.764;26.204;2023-04-12T12:47:44;4.53;;;4.23;;
7583;SDS011;3833;41.764;26.204;2023-04-12T12:50:16;3.43;;;3.23;;
7583;SDS011;3833;41.764;26.204;2023-04-12T12:52:43;4.03;;;3.70;;
7583;SDS011;3833;41.764;26.204;2023-04-12T12:55:11;3.20;;;3.00;;
7583;SDS011;3833;41.764;26.204;2023-04-12T12:57:40;3.77;;;3.47;;
7583;SDS011;3833;41.764;26.204;2023-04-12T13:00:08;9.57;;;9.07;;
7583;SDS011;3833;41.764;26.204;2023-04-12T13:02:37;16.47;;;15.77;;
7583;SDS011;3833;41.764;26.204;2023-04-12T13:05:05;15.70;;;15.00;;
7583;SDS011;3833;41.764;26.204;2023-04-12T13:07:32;14.23;;;13.70;;
7583;SDS011;3833;41.764;26.204;2023-04-12T13:10:00;3.40;;;3.10;;
7583;SDS011;3833;41.764;26.204;2023-04-12T13:12:27;2.93;;;2.83;;
7583;SDS011;3833;41.764;26.204;2023-04-12T13:14:55;3.53;;;3.23;;
7583;SDS011;3833;41.764;26.204;2023-04-12T13:17:24;3.30;;;3.10;;
7583;SDS011;3833;41.764;26.204;2023-04-12T13:19:51;3.00;;;2.67;;
7583;SDS011;3833;41.764;26.204;2023-04-12T13:22:18;3.13;;;2.93;;
7583;SDS011;3833;41.764;26.204;2023-04-12T13:24:45;2.77;;;2.57;;
7583;SDS011;3833;41.764;26.204;2023-04-12T13:27:13;2.80;;;2.60;;
7583;SDS011;3833;41.764;26.204;2023-04-12T13:29:40;3.40;;;3.20;;
7583;SDS011;3833;41.764;26.204;2023-04-12T13:32:09;12.47;;;11.97;;
7583;SDS011;3833;41.764;26.204;2023-04-12T13:34:37;15.83;;;15.23;;
7583;SDS011;3833;41.764;26.204;2023-04-12T13:37:04;16.90;;;16.20;;
7583;SDS011;3833;41.764;26.204;2023-04-12T13:39:31;13.97;;;12.97;;
7583;SDS011;3833;41.764;26.204;2023-04-12T13:41:59;16.47;;;13.40;;
7583;SDS011;3833;41.764;26.204;2023-04-12T13:44:27;3.87;;;3.57;;
7583;SDS011;3833;41.764;26.204;2023-04-12T13:46:54;5.93;;;5.33;;
7583;SDS011;3833;41.764;26.204;2023-04-12T13:49:22;14.57;;;12.10;;
7583;SDS011;3833;41.764;26.204;2023-04-12T13:51:49;18.67;;;14.57;;
7583;SDS011;3833;41.764;26.204;2023-04-12T13:54:16;5.97;;;5.20;;
7583;SDS011;3833;41.764;26.204;2023-04-12T13:56:43;7.00;;;6.30;;
7583;SDS011;3833;41.764;26.204;2023-04-12T13:59:10;7.23;;;5.63;;
7583;SDS011;3833;41.764;26.204;2023-04-12T14:01:38;22.47;;;21.07;;
7583;SDS011;3833;41.764;26.204;2023-04-12T14:04:05;37.97;;;35.30;;
7583;SDS011;3833;41.764;26.204;2023-04-12T14:06:34;28.73;;;27.03;;
7583;SDS011;3833;41.764;26.204;2023-04-12T14:09:02;13.13;;;12.23;;
7583;SDS011;3833;41.764;26.204;2023-04-12T14:11:43;4.80;;;2.93;;
7583;SDS011;3833;41.764;26.204;2023-04-12T14:14:11;3.50;;;3.20;;
7583;SDS011;3833;41.764;26.204;2023-04-12T14:16:38;3.77;;;3.47;;
7583;SDS011;3833;41.764;26.204;2023-04-12T14:19:05;2.63;;;2.40;;
7583;SDS011;3833;41.764;26.204;2023-04-12T14:21:33;3.07;;;2.87;;
7583;SDS011;3833;41.764;26.204;2023-04-12T14:24:00;2.97;;;2.77;;
7583;SDS011;3833;41.764;26.204;2023-04-12T14:26:27;5.73;;;3.30;;
7583;SDS011;3833;41.764;26.204;2023-04-12T14:28:54;3.50;;;3.20;;
7583;SDS011;3833;41.764;26.204;2023-04-12T14:31:21;4.47;;;4.17;;
7583;SDS011;3833;41.764;26.204;2023-04-12T14:33:48;3.10;;;2.90;;
7583;SDS011;3833;41.764;26.204;2023-04-12T14:36:15;4.13;;;3.83;;
7583;SDS011;3833;41.764;26.204;2023-04-12T14:38:43;4.40;;;4.10;;
7583;SDS011;3833;41.764;26.204;2023-04-12T14:41:10;3.80;;;3.23;;
7583;SDS011;3833;41.764;26.204;2023-04-12T14:43:38;4.20;;;3.90;;
7583;SDS011;3833;41.764;26.204;2023-04-12T14:46:05;3.20;;;3.00;;
7583;SDS011;3833;41.764;26.204;2023-04-12T14:48:32;3.30;;;3.00;;
7583;SDS011;3833;41.764;26.204;2023-04-12T14:50:59;15.20;;;14.40;;
7583;SDS011;3833;41.764;26.204;2023-04-12T14:53:26;17.00;;;16.00;;
7583;SDS011;3833;41.764;26.204;2023-04-12T14:55:54;15.90;;;14.90;;
7583;SDS011;3833;41.764;26.204;2023-04-12T14:58:26;9.50;;;9.00;;
7583;SDS011;3833;41.764;26.204;2023-04-12T15:00:55;11.37;;;9.93;;
7583;SDS011;3833;41.764;26.204;2023-04-12T15:03:22;7.30;;;6.23;;
7583;SDS011;3833;41.764;26.204;2023-04-12T15:05:50;8.33;;;5.23;;
7583;SDS011;3833;41.764;26.204;2023-04-12T15:08:17;6.77;;;5.30;;